Urbana, Illinois
Current Conditions -  °F | °C
As of 1:53 AM on Saturday 29 Nov 2014 (Local Time) from KCMI Reporting Station
Clear Clear  
Wind Chill: -3°   Ceiling: Unl
Heat Index:   Visibility: 10mi
Dew Point: -2°   Wind: 10mph
Humidity: 82%   Direction: 170°S
Pressure: 29.88"   Gusts: NA
Location:  40.12°N, 88.2°W
Report Text: KCMI 290753Z AUTO 17009KT 10SM CLR 01/M02 A2988 RMK AO2 SLP124 T00111017 $
Loading
Personal Weather Stations






























Interactive Weather Map New forecast layout! Learn more

10-Day Weather Forecast

Advertisements
Track Severe Weather on mobile